createdAt,value
2022-11-18T00:00:29.522Z,9.88
2022-11-18T00:03:32.128Z,9.97
2022-11-18T00:06:34.710Z,9.99
2022-11-18T00:09:38.679Z,9.96
2022-11-18T00:13:13.582Z,10.02
2022-11-18T00:16:16.117Z,9.96
2022-11-18T00:19:19.475Z,9.97
2022-11-18T00:22:28.448Z,10.01
2022-11-18T00:25:34.860Z,10.02
2022-11-18T00:28:37.831Z,10.07
2022-11-18T00:31:40.807Z,10.01
2022-11-18T00:34:43.694Z,10.02
2022-11-18T00:37:46.341Z,10.12
2022-11-18T00:40:50.296Z,10.08
2022-11-18T00:43:52.025Z,10.03
2022-11-18T00:46:55.324Z,10.04
2022-11-18T00:49:58.009Z,9.95
2022-11-18T00:53:00.555Z,9.88
2022-11-18T00:56:04.873Z,9.86
2022-11-18T00:59:07.742Z,9.84
2022-11-18T01:02:10.451Z,9.83
2022-11-18T01:05:13.139Z,9.79
2022-11-18T01:08:16.122Z,9.64
2022-11-18T01:11:37.513Z,9.68
2022-11-18T01:14:40.194Z,9.68
2022-11-18T01:17:42.893Z,9.68
2022-11-18T01:20:46.143Z,9.70
2022-11-18T01:23:49.186Z,9.60
2022-11-18T01:26:53.207Z,9.60
2022-11-18T01:29:55.920Z,9.63
2022-11-18T01:32:59.152Z,9.68
2022-11-18T01:36:02.241Z,9.62
2022-11-18T01:39:05.231Z,9.61
2022-11-18T01:42:13.671Z,9.61
2022-11-18T01:45:25.708Z,9.57
2022-11-18T01:48:31.241Z,9.43
2022-11-18T01:51:36.702Z,9.46
2022-11-18T01:54:42.144Z,9.55
2022-11-18T01:57:48.975Z,9.50
2022-11-18T02:00:51.739Z,9.48
2022-11-18T02:03:55.049Z,9.50
2022-11-18T02:06:57.823Z,9.49
2022-11-18T02:10:03.843Z,9.48
2022-11-18T02:13:08.276Z,9.52
2022-11-18T02:16:16.587Z,9.49
2022-11-18T02:19:33.878Z,9.41
2022-11-18T02:22:47.293Z,9.39
2022-11-18T02:26:04.452Z,9.28
2022-11-18T02:29:10.405Z,9.37
2022-11-18T02:32:16.701Z,9.39
2022-11-18T02:35:21.969Z,9.34
2022-11-18T02:38:27.747Z,9.35
2022-11-18T02:41:33.280Z,9.31
2022-11-18T02:44:39.176Z,9.32
2022-11-18T02:47:43.659Z,9.34
2022-11-18T02:50:47.076Z,9.33
2022-11-18T02:53:50.435Z,9.38
2022-11-18T02:56:53.781Z,9.37
2022-11-18T02:59:57.932Z,9.45
2022-11-18T03:03:00.517Z,9.41
2022-11-18T03:06:10.606Z,9.35
2022-11-18T03:09:16.211Z,9.36
2022-11-18T03:12:25.320Z,9.38
2022-11-18T03:15:35.857Z,9.37
2022-11-18T03:18:43.400Z,9.32
2022-11-18T03:21:49.143Z,9.25
2022-11-18T03:24:57.069Z,9.33
2022-11-18T03:28:04.481Z,9.37
2022-11-18T03:31:11.626Z,9.39
2022-11-18T03:34:20.398Z,9.32
2022-11-18T03:37:24.363Z,9.36
2022-11-18T03:40:29.349Z,9.39
2022-11-18T03:43:35.883Z,9.41
2022-11-18T03:46:42.088Z,9.40
2022-11-18T03:49:47.715Z,9.44
2022-11-18T03:52:51.326Z,9.44
2022-11-18T03:55:57.975Z,9.35
2022-11-18T03:59:06.207Z,9.39
2022-11-18T04:02:13.526Z,9.38
2022-11-18T04:05:17.522Z,9.34
2022-11-18T04:08:23.817Z,9.34
2022-11-18T04:11:48.658Z,9.28
2022-11-18T04:14:55.366Z,9.18
2022-11-18T04:17:59.558Z,8.96
2022-11-18T04:21:02.203Z,9.08
2022-11-18T04:24:05.199Z,9.08
2022-11-18T04:27:08.573Z,9.08
2022-11-18T04:30:12.425Z,8.94
2022-11-18T04:33:16.473Z,9.00
2022-11-18T04:36:19.910Z,9.06
2022-11-18T04:39:22.693Z,9.14
2022-11-18T04:42:25.463Z,9.18
2022-11-18T04:45:28.152Z,9.01
2022-11-18T04:48:32.336Z,9.02
2022-11-18T04:51:34.977Z,8.98
2022-11-18T04:54:37.653Z,8.77
2022-11-18T04:57:40.268Z,8.77
2022-11-18T05:00:42.814Z,8.85
2022-11-18T05:03:50.539Z,8.85
2022-11-18T05:06:53.972Z,8.83
2022-11-18T05:09:56.600Z,8.81
2022-11-18T05:12:58.195Z,8.78
2022-11-18T05:16:02.345Z,8.78
2022-11-18T05:19:07.112Z,8.78
2022-11-18T05:22:09.741Z,8.81
2022-11-18T05:25:12.389Z,8.91
2022-11-18T05:28:15.244Z,8.86
2022-11-18T05:31:18.347Z,8.81
2022-11-18T05:34:22.563Z,8.70
2022-11-18T05:37:25.439Z,8.72
2022-11-18T05:40:29.076Z,8.69
2022-11-18T05:43:31.539Z,8.70
2022-11-18T05:46:34.978Z,8.64
2022-11-18T05:49:38.989Z,8.63
2022-11-18T05:52:41.714Z,8.63
2022-11-18T05:55:49.233Z,8.58
2022-11-18T05:58:52.077Z,8.59
2022-11-18T06:01:58.272Z,8.58
2022-11-18T06:08:33.885Z,8.53
2022-11-18T06:11:43.050Z,8.60
2022-11-18T06:14:46.966Z,8.58
2022-11-18T06:17:51.703Z,8.51
2022-11-18T06:20:57.915Z,8.54
2022-11-18T06:24:00.667Z,8.52
2022-11-18T06:27:04.039Z,8.50
2022-11-18T06:30:08.273Z,8.56
2022-11-18T06:33:10.876Z,8.54
2022-11-18T06:36:14.807Z,8.52
2022-11-18T06:39:17.623Z,8.48
2022-11-18T06:42:34.342Z,8.51
2022-11-18T06:45:37.048Z,8.54
2022-11-18T06:48:39.753Z,8.58
2022-11-18T06:51:43.842Z,8.67
2022-11-18T06:54:46.633Z,8.74
2022-11-18T06:57:49.266Z,8.82
2022-11-18T07:00:51.885Z,8.84
2022-11-18T07:03:55.034Z,8.96
2022-11-18T07:06:59.037Z,9.03
2022-11-18T07:10:01.814Z,9.14
2022-11-18T07:13:04.748Z,9.23
2022-11-18T07:16:08.842Z,9.29
2022-11-18T07:19:12.994Z,9.26
2022-11-18T07:22:17.292Z,9.27
2022-11-18T07:25:20.395Z,9.15
2022-11-18T07:28:23.256Z,9.06
2022-11-18T07:31:25.836Z,9.08
2022-11-18T07:34:28.380Z,9.11
2022-11-18T07:37:32.361Z,9.15
2022-11-18T07:40:35.157Z,9.23
2022-11-18T07:43:38.390Z,9.34
2022-11-18T07:46:41.113Z,9.40
2022-11-18T07:49:43.840Z,9.44
2022-11-18T07:52:47.744Z,9.61
2022-11-18T07:55:50.352Z,9.55
2022-11-18T07:58:53.760Z,9.46
2022-11-18T08:01:57.555Z,9.56
2022-11-18T08:05:00.395Z,9.73
2022-11-18T08:08:04.746Z,9.86
2022-11-18T08:11:08.654Z,9.74
2022-11-18T08:14:11.260Z,9.68
2022-11-18T08:17:13.926Z,9.67
2022-11-18T08:20:17.185Z,9.59
2022-11-18T08:23:21.219Z,9.48
2022-11-18T08:26:24.925Z,9.44
2022-11-18T08:29:28.758Z,9.62
2022-11-18T08:32:31.986Z,9.61
2022-11-18T08:35:35.475Z,9.53
2022-11-18T08:38:39.441Z,9.51
2022-11-18T08:41:43.737Z,9.48
2022-11-18T08:44:46.902Z,9.24
2022-11-18T08:47:49.487Z,9.43
2022-11-18T08:50:52.776Z,9.57
2022-11-18T08:53:57.061Z,9.65
2022-11-18T08:56:59.649Z,9.76
2022-11-18T09:00:02.236Z,10.15
2022-11-18T09:03:04.845Z,10.15
2022-11-18T09:06:09.140Z,10.16
2022-11-18T09:09:13.124Z,9.97
2022-11-18T09:12:17.524Z,10.13
2022-11-18T09:15:20.622Z,10.10
2022-11-18T09:18:23.534Z,10.18
2022-11-18T09:21:26.630Z,10.24
2022-11-18T09:24:30.726Z,10.05
2022-11-18T09:27:33.391Z,10.14
2022-11-18T09:30:36.003Z,10.01
2022-11-18T09:33:38.953Z,10.00
2022-11-18T09:36:41.653Z,10.00
2022-11-18T09:39:45.604Z,10.05
2022-11-18T09:42:57.716Z,10.08
2022-11-18T09:46:05.396Z,10.24
2022-11-18T09:49:14.861Z,10.33
2022-11-18T09:52:21.060Z,10.23
2022-11-18T09:55:25.089Z,10.07
2022-11-18T09:58:32.983Z,10.11
2022-11-18T10:01:37.750Z,10.25
2022-11-18T10:04:40.713Z,10.37
2022-11-18T10:07:48.155Z,10.46
2022-11-18T10:10:57.684Z,10.73
2022-11-18T10:14:07.975Z,10.90
2022-11-18T10:17:23.215Z,11.00
2022-11-18T10:20:33.359Z,11.03
2022-11-18T10:23:43.630Z,10.86
2022-11-18T10:26:47.824Z,10.93
2022-11-18T10:29:54.133Z,11.05
2022-11-18T10:32:59.020Z,11.01
2022-11-18T10:36:26.275Z,11.17
2022-11-18T10:39:29.050Z,11.15
2022-11-18T10:42:37.071Z,10.96
2022-11-18T10:45:39.722Z,11.36
2022-11-18T10:48:42.349Z,11.67
2022-11-18T10:51:46.412Z,11.93
2022-11-18T10:55:07.575Z,11.88
2022-11-18T10:58:16.163Z,11.64
2022-11-18T11:01:21.848Z,11.50
2022-11-18T11:04:27.231Z,11.36
2022-11-18T11:07:32.766Z,11.14
2022-11-18T11:10:35.651Z,10.54
2022-11-18T11:13:41.962Z,10.62
2022-11-18T11:16:49.850Z,10.31
2022-11-18T11:19:54.215Z,9.97
2022-11-18T11:22:57.196Z,9.88
2022-11-18T11:29:38.444Z,10.32
2022-11-18T11:33:06.173Z,10.53
2022-11-18T11:36:25.889Z,10.79
2022-11-18T11:39:47.998Z,11.41
2022-11-18T11:42:59.626Z,11.81
2022-11-18T11:46:24.276Z,12.08
2022-11-18T11:49:45.348Z,12.12
2022-11-18T11:52:58.742Z,12.41
2022-11-18T11:56:07.308Z,12.04
2022-11-18T11:59:19.784Z,12.02
2022-11-18T12:02:48.685Z,12.21
2022-11-18T12:05:52.404Z,12.52
2022-11-18T12:08:58.444Z,12.65
2022-11-18T12:12:28.927Z,12.23
2022-11-18T12:15:42.332Z,11.86
2022-11-18T12:18:49.938Z,11.52
2022-11-18T12:22:03.928Z,11.25
2022-11-18T12:25:17.187Z,11.23
2022-11-18T12:28:25.175Z,11.17
2022-11-18T12:31:35.361Z,10.94
2022-11-18T12:34:42.442Z,10.82
2022-11-18T12:37:48.544Z,10.36
2022-11-18T12:40:53.157Z,9.98
2022-11-18T12:44:09.995Z,9.80
2022-11-18T12:47:13.500Z,9.82
2022-11-18T12:50:18.186Z,10.04
2022-11-18T12:53:34.352Z,10.20
2022-11-18T12:56:38.252Z,10.31
2022-11-18T12:59:40.961Z,10.16
2022-11-18T13:02:52.143Z,10.31
2022-11-18T13:06:14.411Z,12.70
2022-11-18T13:09:18.712Z,12.20
2022-11-18T13:12:21.517Z,12.30
2022-11-18T13:15:42.129Z,12.77
2022-11-18T13:18:51.903Z,12.44
2022-11-18T13:22:14.497Z,12.80
2022-11-18T13:25:25.108Z,19.20
2022-11-18T13:28:34.129Z,20.76
2022-11-18T13:31:40.248Z,22.18
2022-11-18T13:34:47.736Z,16.01
2022-11-18T13:37:54.672Z,13.08
2022-11-18T13:41:08.164Z,12.31
2022-11-18T13:44:13.138Z,16.08
2022-11-18T13:47:24.309Z,20.94
2022-11-18T13:50:31.740Z,23.78
2022-11-18T13:53:37.212Z,23.04
2022-11-18T13:56:40.304Z,20.23
2022-11-18T13:59:43.295Z,18.69
2022-11-18T14:02:54.358Z,20.75
2022-11-18T14:05:58.427Z,21.32
2022-11-18T14:09:18.004Z,22.72
2022-11-18T14:12:24.519Z,22.65
2022-11-18T14:15:40.491Z,21.50
2022-11-18T14:18:48.459Z,22.96
2022-11-18T14:21:51.137Z,18.70
2022-11-18T14:24:59.149Z,14.20
2022-11-18T14:28:13.245Z,12.74
2022-11-18T14:31:24.636Z,12.68
2022-11-18T14:34:28.040Z,12.64
2022-11-18T14:37:31.358Z,12.26
2022-11-18T14:40:35.308Z,12.04
2022-11-18T14:43:38.378Z,11.46
2022-11-18T14:46:42.831Z,11.41
2022-11-18T14:49:45.508Z,11.18
2022-11-18T14:52:48.108Z,11.09
2022-11-18T14:55:53.282Z,10.94
2022-11-18T14:58:55.982Z,10.97
2022-11-18T15:01:59.421Z,10.93
2022-11-18T15:05:02.151Z,10.85
2022-11-18T15:08:05.140Z,10.71
2022-11-18T15:11:09.284Z,10.80
2022-11-18T15:14:11.938Z,10.63
2022-11-18T15:17:14.841Z,10.60
2022-11-18T15:20:20.375Z,10.54
2022-11-18T15:23:25.753Z,10.67
2022-11-18T15:26:37.253Z,10.82
2022-11-18T15:29:39.853Z,10.68
2022-11-18T15:32:43.169Z,10.63
2022-11-18T15:35:45.810Z,10.65
2022-11-18T15:38:49.597Z,10.79
2022-11-18T15:41:53.887Z,10.82
2022-11-18T15:44:56.610Z,10.73
2022-11-18T15:47:59.327Z,10.69
2022-11-18T15:51:01.920Z,10.68
2022-11-18T15:54:04.773Z,10.71
2022-11-18T15:57:08.738Z,10.68
2022-11-18T16:00:12.477Z,10.66
2022-11-18T16:03:15.789Z,10.68
2022-11-18T16:06:18.670Z,10.66
2022-11-18T16:09:21.804Z,10.62
2022-11-18T16:12:43.990Z,10.51
2022-11-18T16:15:48.519Z,10.31
2022-11-18T16:18:54.948Z,10.31
2022-11-18T16:21:57.895Z,10.35
2022-11-18T16:25:00.620Z,10.29
2022-11-18T16:28:08.137Z,10.30
2022-11-18T16:31:28.531Z,10.29
2022-11-18T16:34:31.240Z,10.22
2022-11-18T16:37:33.927Z,10.16
2022-11-18T16:40:36.637Z,10.13
2022-11-18T16:43:40.747Z,10.16
2022-11-18T16:46:47.323Z,10.23
2022-11-18T16:49:50.100Z,10.31
2022-11-18T16:52:52.678Z,10.34
2022-11-18T16:55:56.828Z,10.34
2022-11-18T16:59:02.888Z,10.31
2022-11-18T17:02:06.528Z,10.21
2022-11-18T17:05:09.966Z,10.03
2022-11-18T17:08:12.749Z,9.92
2022-11-18T17:11:15.551Z,9.99
2022-11-18T17:14:21.783Z,10.12
2022-11-18T17:17:24.675Z,10.12
2022-11-18T17:20:27.265Z,10.09
2022-11-18T17:23:29.957Z,10.05
2022-11-18T17:26:32.522Z,9.98
2022-11-18T17:29:36.657Z,10.09
2022-11-18T17:32:39.347Z,10.08
2022-11-18T17:35:41.930Z,10.04
2022-11-18T17:38:46.828Z,10.00
2022-11-18T17:42:07.743Z,9.81
2022-11-18T17:45:12.697Z,9.71
2022-11-18T17:48:15.261Z,9.75
2022-11-18T17:51:17.863Z,9.87
2022-11-18T17:54:21.129Z,9.94
2022-11-18T17:57:26.638Z,10.01
2022-11-18T18:00:31.948Z,10.05
2022-11-18T18:03:34.716Z,10.03
2022-11-18T18:06:37.409Z,10.02
2022-11-18T18:09:40.252Z,9.92
2022-11-18T18:13:00.722Z,9.80
2022-11-18T18:16:04.931Z,9.74
2022-11-18T18:19:08.352Z,9.72
2022-11-18T18:22:11.042Z,9.62
2022-11-18T18:25:14.200Z,9.70
2022-11-18T18:28:16.871Z,9.74
2022-11-18T18:31:20.909Z,9.72
2022-11-18T18:34:23.522Z,9.52
2022-11-18T18:37:26.449Z,9.36
2022-11-18T18:40:29.104Z,9.45
2022-11-18T18:43:31.873Z,9.38
2022-11-18T18:46:37.803Z,9.19
2022-11-18T18:49:40.451Z,9.02
2022-11-18T18:52:43.214Z,8.91
2022-11-18T18:55:45.905Z,8.75
2022-11-18T18:58:48.803Z,8.58
2022-11-18T19:01:52.856Z,8.39
2022-11-18T19:04:55.646Z,8.31
2022-11-18T19:07:58.388Z,8.19
2022-11-18T19:11:05.874Z,8.25
2022-11-18T19:14:12.799Z,8.34
2022-11-18T19:17:17.464Z,8.53
2022-11-18T19:20:37.375Z,8.76
2022-11-18T19:23:41.174Z,8.92
2022-11-18T19:26:43.936Z,9.13
2022-11-18T19:29:46.592Z,9.25
2022-11-18T19:32:51.114Z,9.32
2022-11-18T19:35:56.620Z,9.38
2022-11-18T19:39:00.476Z,9.50
2022-11-18T19:42:03.152Z,9.49
2022-11-18T19:45:07.428Z,9.43
2022-11-18T19:48:11.613Z,9.42
2022-11-18T19:51:15.684Z,9.37
2022-11-18T19:54:18.758Z,9.37
2022-11-18T19:57:22.094Z,9.36
2022-11-18T20:00:24.823Z,9.32
2022-11-18T20:03:30.692Z,9.36
2022-11-18T20:06:35.466Z,9.36
2022-11-18T20:09:38.180Z,9.38
2022-11-18T20:12:40.896Z,9.32
2022-11-18T20:15:44.145Z,9.23
2022-11-18T20:18:49.280Z,9.21
2022-11-18T20:21:52.503Z,9.18
2022-11-18T20:24:55.183Z,9.15
2022-11-18T20:27:58.484Z,9.13
2022-11-18T20:31:02.265Z,9.12
2022-11-18T20:34:06.492Z,8.99
2022-11-18T20:37:09.667Z,9.04
2022-11-18T20:40:13.106Z,9.06
2022-11-18T20:43:15.726Z,9.12
2022-11-18T20:46:20.927Z,9.12
2022-11-18T20:49:25.213Z,9.11
2022-11-18T20:52:27.795Z,9.11
2022-11-18T20:55:30.485Z,9.10
2022-11-18T20:58:33.925Z,9.11
2022-11-18T21:01:36.645Z,8.98
2022-11-18T21:04:40.711Z,8.97
2022-11-18T21:07:43.270Z,8.87
2022-11-18T21:10:45.909Z,8.84
2022-11-18T21:14:05.979Z,8.77
2022-11-18T21:17:08.720Z,8.72
2022-11-18T21:20:26.903Z,8.75
2022-11-18T21:23:29.492Z,8.87
2022-11-18T21:26:33.679Z,9.00
2022-11-18T21:29:36.290Z,9.05
2022-11-18T21:32:38.990Z,9.08
2022-11-18T21:35:43.124Z,9.05
2022-11-18T21:38:45.832Z,9.10
2022-11-18T21:41:53.852Z,9.19
2022-11-18T21:44:58.863Z,9.08
2022-11-18T21:48:01.525Z,9.06
2022-11-18T21:51:07.253Z,9.16
2022-11-18T21:54:11.690Z,9.19
2022-11-18T21:57:14.307Z,8.97
2022-11-18T22:00:18.012Z,8.83
2022-11-18T22:03:20.468Z,8.72
2022-11-18T22:06:25.280Z,8.62
2022-11-18T22:09:32.910Z,8.72
2022-11-18T22:12:38.651Z,8.70
2022-11-18T22:15:41.297Z,8.79
2022-11-18T22:18:45.017Z,8.72
2022-11-18T22:21:48.857Z,8.78
2022-11-18T22:24:51.433Z,8.71
2022-11-18T22:27:55.285Z,8.52
2022-11-18T22:31:02.740Z,8.48
2022-11-18T22:34:05.428Z,8.37
2022-11-18T22:37:09.473Z,8.35
2022-11-18T22:40:13.380Z,8.30
2022-11-18T22:43:15.974Z,8.31
2022-11-18T22:46:20.099Z,8.35
2022-11-18T22:49:22.738Z,8.31
2022-11-18T22:52:26.660Z,8.31
2022-11-18T22:55:29.227Z,8.34
2022-11-18T22:58:31.911Z,8.33
2022-11-18T23:01:34.633Z,8.36
2022-11-18T23:04:37.258Z,8.37
2022-11-18T23:07:41.274Z,8.40
2022-11-18T23:10:44.004Z,8.33
2022-11-18T23:14:03.760Z,8.36
2022-11-18T23:17:06.661Z,8.46
2022-11-18T23:20:10.584Z,8.39
2022-11-18T23:23:14.555Z,8.47
2022-11-18T23:26:17.625Z,8.42
2022-11-18T23:29:20.513Z,8.46
2022-11-18T23:32:23.461Z,8.58
2022-11-18T23:35:26.140Z,8.39
2022-11-18T23:38:30.597Z,8.28
2022-11-18T23:41:33.211Z,8.22
2022-11-18T23:44:52.411Z,8.27
2022-11-18T23:47:55.028Z,8.33
2022-11-18T23:50:59.248Z,8.31
2022-11-18T23:54:03.215Z,8.30
2022-11-18T23:57:05.886Z,8.24
